Time;durP1;ratioP1;P1;durP2;ratioP2;P2;SDS_P1;SDS_P2;PMS_P1;PMS_P2;Temp;Humidity;BMP_temperature;BMP_pressure;BME280_temperature;BME280_humidity;BME280_pressure;Samples;Min_cycle;Max_cycle;Signal;HPM_P1;HPM_P2
2023/09/13 00:00:15;;;;;;;4.55;4.15;;;23.80;99.90;;;;;;4959559;28;20201;-70
2023/09/13 00:02:41;;;;;;;4.10;3.80;;;23.80;99.90;;;;;;4972427;28;20189;-70
2023/09/13 00:05:08;;;;;;;4.28;3.97;;;23.70;99.90;;;;;;4954696;28;20189;-70
2023/09/13 00:07:36;;;;;;;3.80;3.55;;;23.70;99.90;;;;;;4955026;28;20597;-70
2023/09/13 00:10:02;;;;;;;4.18;3.80;;;23.80;99.90;;;;;;4955235;28;20204;-70
2023/09/13 00:12:27;;;;;;;4.65;4.25;;;23.80;99.90;;;;;;4955509;28;20202;-70
2023/09/13 00:14:53;;;;;;;4.28;3.97;;;23.70;99.90;;;;;;4946602;28;20559;-70
2023/09/13 00:17:21;;;;;;;4.43;4.03;;;23.70;99.90;;;;;;4958156;28;20221;-69
2023/09/13 00:19:47;;;;;;;4.07;3.53;;;23.80;99.90;;;;;;4942737;28;20280;-70
2023/09/13 00:22:12;;;;;;;4.55;4.22;;;23.80;99.90;;;;;;4951800;28;20287;-70
2023/09/13 00:24:38;;;;;;;4.28;3.97;;;23.80;99.90;;;;;;4957788;28;20217;-70
2023/09/13 00:27:04;;;;;;;4.20;3.90;;;23.70;99.90;;;;;;4941976;28;20213;-70
2023/09/13 00:29:33;;;;;;;4.50;4.10;;;23.80;99.90;;;;;;4943771;28;20194;-70
2023/09/13 00:32:01;;;;;;;4.00;3.70;;;23.70;99.90;;;;;;4958291;28;20212;-70
2023/09/13 00:34:26;;;;;;;4.28;3.97;;;23.70;99.90;;;;;;4949991;28;20202;-70
2023/09/13 00:36:52;;;;;;;4.30;4.00;;;23.70;99.90;;;;;;4941872;28;20225;-70
2023/09/13 00:39:18;;;;;;;4.10;3.80;;;23.70;99.90;;;;;;4954540;28;20200;-70
2023/09/13 00:41:44;;;;;;;4.25;3.95;;;23.80;99.90;;;;;;4942276;28;20181;-70
2023/09/13 00:44:09;;;;;;;4.20;3.90;;;23.80;99.90;;;;;;4941933;28;20190;-70
2023/09/13 00:46:36;;;;;;;3.80;3.50;;;23.70;99.90;;;;;;4950128;28;20267;-70
2023/09/13 00:49:02;;;;;;;4.70;4.30;;;23.80;99.90;;;;;;4957858;28;20201;-70
2023/09/13 00:51:29;;;;;;;4.72;4.32;;;23.70;99.90;;;;;;4957821;28;20340;-70
2023/09/13 00:53:57;;;;;;;4.38;3.97;;;23.70;99.90;;;;;;4941984;28;20186;-70
2023/09/13 00:56:24;;;;;;;4.38;4.07;;;23.80;99.90;;;;;;4957589;28;20236;-70
2023/09/13 00:58:51;;;;;;;3.90;3.65;;;23.70;99.90;;;;;;4958024;28;20201;-70
2023/09/13 01:01:17;;;;;;;3.97;3.67;;;23.70;99.90;;;;;;4947826;28;20198;-70
2023/09/13 01:03:44;;;;;;;4.00;3.60;;;23.70;99.90;;;;;;4957789;28;20618;-70
2023/09/13 01:06:12;;;;;;;3.97;3.67;;;23.70;99.90;;;;;;4941425;28;20278;-70
2023/09/13 01:08:41;;;;;;;4.55;4.15;;;23.70;99.90;;;;;;4941906;28;20271;-70
2023/09/13 01:11:08;;;;;;;4.22;3.92;;;23.70;99.90;;;;;;4957385;28;20197;-70
2023/09/13 01:13:35;;;;;;;4.00;3.70;;;23.70;99.90;;;;;;4950009;28;20244;-70
2023/09/13 01:16:17;;;;;;;4.60;4.20;;;23.70;99.90;;;;;;4940988;28;20220;-70
2023/09/13 01:18:53;;;;;;;4.57;4.18;;;23.70;99.90;;;;;;4969639;28;20252;-70
2023/09/13 01:21:36;;;;;;;4.60;4.20;;;23.70;99.90;;;;;;4936361;28;20690;-70
2023/09/13 01:24:45;;;;;;;4.78;4.38;;;23.70;99.90;;;;;;4948824;28;20193;-70
2023/09/13 01:27:56;;;;;;;4.47;4.07;;;23.80;99.90;;;;;;4948898;28;20300;-70
2023/09/13 01:30:23;;;;;;;4.50;4.10;;;23.70;99.90;;;;;;4949330;28;20193;-70
2023/09/13 01:32:51;;;;;;;4.28;3.88;;;23.70;99.90;;;;;;4940998;28;20228;-70
2023/09/13 01:35:17;;;;;;;4.32;3.92;;;23.70;99.90;;;;;;4956683;28;20725;-70
2023/09/13 01:37:43;;;;;;;4.97;4.57;;;23.70;99.90;;;;;;4937952;29;20309;-70
2023/09/13 01:40:11;;;;;;;4.22;3.92;;;23.70;99.90;;;;;;4957238;28;20300;-70
2023/09/13 01:42:38;;;;;;;5.00;4.60;;;23.70;99.90;;;;;;4945984;29;20246;-70
2023/09/13 01:45:10;;;;;;;4.38;4.07;;;23.70;99.90;;;;;;4941813;28;20240;-70
2023/09/13 01:47:45;;;;;;;4.70;4.30;;;23.70;99.90;;;;;;4943815;28;20240;-70
2023/09/13 01:50:13;;;;;;;4.40;4.07;;;23.70;99.90;;;;;;4956750;28;20225;-70
2023/09/13 01:52:40;;;;;;;4.47;4.10;;;23.70;99.90;;;;;;4948863;28;20192;-70
2023/09/13 01:55:07;;;;;;;4.60;4.20;;;23.70;99.90;;;;;;4946867;28;20190;-70
2023/09/13 01:57:33;;;;;;;4.13;3.83;;;23.70;99.90;;;;;;4956245;28;20220;-70
2023/09/13 01:59:59;;;;;;;4.25;3.95;;;23.70;99.90;;;;;;4956451;28;20202;-70
2023/09/13 02:02:25;;;;;;;4.43;4.03;;;23.70;99.90;;;;;;4940507;28;20193;-70
2023/09/13 02:04:50;;;;;;;4.38;4.03;;;23.70;99.90;;;;;;4956193;28;20192;-70
2023/09/13 02:07:18;;;;;;;3.95;3.67;;;23.70;99.90;;;;;;4940658;28;20197;-70
2023/09/13 02:09:44;;;;;;;4.53;4.15;;;23.70;99.90;;;;;;4952581;28;20200;-70
2023/09/13 02:12:13;;;;;;;4.90;4.50;;;23.70;99.90;;;;;;4940125;28;20189;-70
2023/09/13 02:14:39;;;;;;;4.95;4.55;;;23.70;99.90;;;;;;4956325;28;20224;-70
2023/09/13 02:17:08;;;;;;;4.70;4.28;;;23.70;99.90;;;;;;4940011;28;20297;-70
2023/09/13 02:19:36;;;;;;;4.45;4.05;;;23.70;99.90;;;;;;4973484;28;20213;-70
2023/09/13 02:22:02;;;;;;;4.07;3.78;;;23.70;99.90;;;;;;4959134;28;20217;-70
2023/09/13 02:24:29;;;;;;;4.38;4.05;;;23.70;99.90;;;;;;4955836;28;20623;-70
2023/09/13 02:26:56;;;;;;;4.40;4.00;;;23.70;99.90;;;;;;4940127;28;20244;-70
2023/09/13 02:29:23;;;;;;;4.63;4.32;;;23.70;99.90;;;;;;4956019;28;20189;-70
2023/09/13 02:31:49;;;;;;;5.00;4.60;;;23.70;99.90;;;;;;4956180;28;20256;-70
2023/09/13 02:34:15;;;;;;;4.47;4.18;;;23.70;99.90;;;;;;4951984;28;20212;-70
2023/09/13 02:36:40;;;;;;;4.70;4.30;;;23.70;99.90;;;;;;4954723;28;20700;-70
2023/09/13 02:39:45;;;;;;;4.22;3.92;;;23.70;99.90;;;;;;4947701;28;20186;-70
2023/09/13 02:42:10;;;;;;;4.05;3.75;;;23.70;99.90;;;;;;4971350;28;20195;-70
2023/09/13 02:44:37;;;;;;;4.30;4.00;;;23.70;99.90;;;;;;4955703;28;20185;-70
2023/09/13 02:47:03;;;;;;;4.70;4.30;;;23.70;99.90;;;;;;4939828;28;20209;-70
2023/09/13 02:49:32;;;;;;;4.72;4.32;;;23.70;99.90;;;;;;4946925;28;20240;-70
2023/09/13 02:51:58;;;;;;;4.70;4.30;;;23.70;99.90;;;;;;4954363;28;20264;-70
2023/09/13 02:54:24;;;;;;;4.32;4.03;;;23.70;99.90;;;;;;4943106;28;20185;-70
2023/09/13 02:56:52;;;;;;;4.35;4.05;;;23.60;99.90;;;;;;4972641;28;20226;-70
2023/09/13 02:59:19;;;;;;;4.38;4.07;;;23.70;99.90;;;;;;4960124;28;20186;-70
2023/09/13 03:01:45;;;;;;;4.65;4.30;;;23.70;99.90;;;;;;4943505;28;20189;-70
2023/09/13 03:04:12;;;;;;;4.32;4.03;;;23.70;99.90;;;;;;4939637;28;20196;-69
2023/09/13 03:06:39;;;;;;;4.10;3.80;;;23.60;99.90;;;;;;4955515;28;20221;-70
2023/09/13 03:09:05;;;;;;;4.63;4.32;;;23.70;99.90;;;;;;4953130;28;20232;-70
2023/09/13 03:11:31;;;;;;;4.88;4.47;;;23.70;99.90;;;;;;4928537;29;20194;-70
2023/09/13 03:13:57;;;;;;;4.60;4.00;;;23.70;99.90;;;;;;4926858;29;20204;-70
2023/09/13 03:16:23;;;;;;;4.70;4.30;;;23.70;99.90;;;;;;4955131;28;20213;-70
2023/09/13 03:18:50;;;;;;;5.00;4.60;;;23.70;99.90;;;;;;4955275;28;20202;-70
2023/09/13 03:21:20;;;;;;;4.55;4.15;;;23.60;99.90;;;;;;4940202;28;20186;-70
2023/09/13 03:23:48;;;;;;;4.20;3.90;;;23.60;99.90;;;;;;4946433;28;20189;-70
2023/09/13 03:26:17;;;;;;;4.75;4.35;;;23.70;99.90;;;;;;4943641;28;20253;-70
2023/09/13 03:28:49;;;;;;;4.15;3.85;;;23.70;99.90;;;;;;4955330;28;20193;-70
2023/09/13 03:31:19;;;;;;;3.92;3.63;;;23.70;99.90;;;;;;4951254;28;20194;-70
2023/09/13 03:33:47;;;;;;;4.22;3.92;;;23.60;99.90;;;;;;4950660;28;20274;-70
2023/09/13 03:36:15;;;;;;;4.78;4.38;;;23.70;99.90;;;;;;4931521;29;20688;-70
2023/09/13 03:38:46;;;;;;;4.20;3.90;;;23.70;99.90;;;;;;4939667;28;20186;-70
2023/09/13 03:41:15;;;;;;;3.97;3.67;;;23.70;99.90;;;;;;4955539;28;20186;-70
2023/09/13 03:43:41;;;;;;;4.30;4.00;;;23.70;99.90;;;;;;4955378;28;20190;-70
2023/09/13 03:46:08;;;;;;;4.03;3.72;;;23.70;99.90;;;;;;4939279;28;20201;-70
2023/09/13 03:48:37;;;;;;;3.97;3.67;;;23.60;99.90;;;;;;4957178;28;20739;-70
2023/09/13 03:51:04;;;;;;;4.20;3.90;;;23.60;99.90;;;;;;4958661;28;20185;-70
2023/09/13 03:53:30;;;;;;;4.18;3.80;;;23.60;99.90;;;;;;4958874;28;20186;-70
2023/09/13 03:55:58;;;;;;;4.22;3.92;;;23.70;99.90;;;;;;4969786;28;20225;-70
2023/09/13 03:58:24;;;;;;;4.00;3.70;;;23.60;99.90;;;;;;4961706;28;20300;-70
2023/09/13 04:00:50;;;;;;;4.22;3.83;;;23.60;99.90;;;;;;4958444;28;20285;-70
2023/09/13 04:03:17;;;;;;;4.30;3.95;;;23.60;99.90;;;;;;4942684;28;20233;-70
2023/09/13 04:05:43;;;;;;;4.20;3.90;;;23.60;99.90;;;;;;4958833;28;20213;-70
2023/09/13 04:08:08;;;;;;;4.32;4.00;;;23.70;99.90;;;;;;4939619;28;20233;-70
2023/09/13 04:10:34;;;;;;;4.53;4.15;;;23.60;99.90;;;;;;4954944;28;20214;-70
2023/09/13 04:13:00;;;;;;;4.10;3.67;;;23.60;99.90;;;;;;4945854;28;20192;-70
2023/09/13 04:15:26;;;;;;;4.18;3.88;;;23.60;99.90;;;;;;4948934;28;20210;-69
2023/09/13 04:17:52;;;;;;;4.30;4.00;;;23.60;99.90;;;;;;4946823;28;20217;-70
2023/09/13 04:20:19;;;;;;;4.30;4.00;;;23.60;99.90;;;;;;4945540;28;20260;-69
2023/09/13 04:22:46;;;;;;;4.43;4.13;;;23.70;99.90;;;;;;4958307;28;20196;-70
2023/09/13 04:25:14;;;;;;;4.22;3.92;;;23.60;99.90;;;;;;4942123;28;20205;-69
2023/09/13 04:27:44;;;;;;;5.13;4.72;;;23.70;99.90;;;;;;4958225;28;20309;-69
2023/09/13 04:30:11;;;;;;;4.20;3.80;;;23.60;99.90;;;;;;4950243;28;20186;-69
2023/09/13 04:32:38;;;;;;;4.70;4.30;;;23.60;99.90;;;;;;4958092;28;20192;-70
2023/09/13 04:35:05;;;;;;;4.45;4.15;;;23.60;99.90;;;;;;4941887;28;20193;-69
2023/09/13 04:37:31;;;;;;;4.15;3.85;;;23.60;99.90;;;;;;4941993;28;20209;-70
2023/09/13 04:39:58;;;;;;;4.32;4.00;;;23.60;99.90;;;;;;4945373;28;20189;-70
2023/09/13 04:42:24;;;;;;;4.13;3.83;;;23.60;99.90;;;;;;4942178;28;20194;-69
2023/09/13 04:44:50;;;;;;;4.18;3.88;;;23.60;99.90;;;;;;4974038;28;20178;-69
2023/09/13 04:47:18;;;;;;;4.50;4.10;;;23.60;99.90;;;;;;4957866;28;20212;-70
2023/09/13 04:49:43;;;;;;;4.28;3.97;;;23.60;99.90;;;;;;4974257;28;20200;-70
2023/09/13 04:52:10;;;;;;;3.67;3.45;;;23.60;99.90;;;;;;4941699;28;20189;-69
2023/09/13 04:54:36;;;;;;;4.13;3.83;;;23.60;99.90;;;;;;4964601;28;20201;-69
2023/09/13 04:57:04;;;;;;;4.40;4.00;;;23.60;99.90;;;;;;4953511;28;20214;-70
2023/09/13 04:59:44;;;;;;;3.83;3.53;;;23.60;99.90;;;;;;4948068;28;20221;-69
2023/09/13 05:02:12;;;;;;;4.57;4.18;;;23.60;99.90;;;;;;4942138;28;20182;-70
2023/09/13 05:04:39;;;;;;;4.10;3.80;;;23.60;99.90;;;;;;4957109;28;20188;-69
2023/09/13 05:07:06;;;;;;;4.00;3.70;;;23.60;99.90;;;;;;4943339;28;20209;-69
2023/09/13 05:09:34;;;;;;;3.95;3.65;;;23.60;99.90;;;;;;4974726;28;20189;-69
2023/09/13 05:12:00;;;;;;;4.20;3.70;;;23.60;99.90;;;;;;4946610;28;20181;-69
2023/09/13 05:14:26;;;;;;;3.78;3.47;;;23.60;99.90;;;;;;4941573;28;20200;-70
2023/09/13 05:16:52;;;;;;;4.18;3.88;;;23.60;99.90;;;;;;4957104;28;20216;-70
2023/09/13 05:19:18;;;;;;;4.22;3.92;;;23.60;99.90;;;;;;4939110;28;20599;-70
2023/09/13 05:21:44;;;;;;;4.18;3.88;;;23.60;99.90;;;;;;4946870;28;20197;-69
2023/09/13 05:24:10;;;;;;;4.25;3.90;;;23.60;99.90;;;;;;4940778;28;20229;-70
2023/09/13 05:26:36;;;;;;;4.40;4.10;;;23.60;99.90;;;;;;4941125;28;20218;-69
2023/09/13 05:29:02;;;;;;;4.35;3.95;;;23.60;99.90;;;;;;4941281;28;20193;-69
2023/09/13 05:31:28;;;;;;;4.07;3.78;;;23.60;99.90;;;;;;4959137;28;20190;-69
2023/09/13 05:33:54;;;;;;;5.00;4.22;;;23.60;99.90;;;;;;4971295;28;20201;-69
2023/09/13 05:36:20;;;;;;;4.40;4.10;;;23.60;99.90;;;;;;4946163;28;20216;-69
2023/09/13 05:38:49;;;;;;;4.05;3.75;;;23.60;99.90;;;;;;4951302;28;20203;-69
2023/09/13 05:41:15;;;;;;;4.35;4.05;;;23.60;99.90;;;;;;4941022;28;20197;-69
2023/09/13 05:43:42;;;;;;;4.43;4.03;;;23.60;99.90;;;;;;4942148;28;20189;-70
2023/09/13 05:46:09;;;;;;;3.80;3.50;;;23.50;99.90;;;;;;4956078;28;20217;-69
2023/09/13 05:48:36;;;;;;;4.55;4.00;;;23.60;99.90;;;;;;4959082;28;20189;-68
2023/09/13 05:51:03;;;;;;;3.90;3.63;;;23.60;99.90;;;;;;4939951;28;20276;-69
2023/09/13 05:53:30;;;;;;;4.28;3.97;;;23.60;99.90;;;;;;4972695;28;20196;-69
2023/09/13 05:55:57;;;;;;;4.47;4.18;;;23.50;99.90;;;;;;4940478;28;20751;-70
2023/09/13 05:58:23;;;;;;;3.70;3.40;;;23.60;99.90;;;;;;4943193;28;20648;-69
2023/09/13 06:00:50;;;;;;;4.68;4.30;;;23.60;99.90;;;;;;4940607;28;20202;-69
2023/09/13 06:03:18;;;;;;;4.03;3.70;;;23.60;99.90;;;;;;4956643;28;20232;-69
2023/09/13 06:05:49;;;;;;;4.30;3.80;;;23.60;99.90;;;;;;4945000;28;20202;-69
2023/09/13 06:08:15;;;;;;;4.20;3.80;;;23.60;99.90;;;;;;4939430;29;20202;-69
2023/09/13 06:10:40;;;;;;;4.50;4.10;;;23.50;99.90;;;;;;4976822;28;20224;-69
2023/09/13 06:13:07;;;;;;;4.32;3.92;;;23.60;99.90;;;;;;4957276;28;20198;-69
2023/09/13 06:15:33;;;;;;;4.50;4.20;;;23.60;99.90;;;;;;4955870;28;20213;-69
2023/09/13 06:17:59;;;;;;;4.20;3.80;;;23.60;99.90;;;;;;4956348;28;20216;-69
2023/09/13 06:20:25;;;;;;;4.13;3.83;;;23.60;99.90;;;;;;4958654;28;20190;-69
2023/09/13 06:22:50;;;;;;;4.30;4.00;;;23.60;99.90;;;;;;4942403;28;20189;-69
2023/09/13 06:25:17;;;;;;;5.25;3.70;;;23.60;99.90;;;;;;4973236;28;20212;-69
2023/09/13 06:27:46;;;;;;;4.07;3.78;;;23.60;99.90;;;;;;4939984;28;20284;-69
2023/09/13 06:30:15;;;;;;;4.55;4.15;;;23.60;99.90;;;;;;4955997;28;20577;-69
2023/09/13 06:32:42;;;;;;;4.65;4.25;;;23.60;99.90;;;;;;4939864;28;20201;-69
2023/09/13 06:35:13;;;;;;;3.97;3.67;;;23.60;99.90;;;;;;4971888;28;20717;-69
2023/09/13 06:37:40;;;;;;;4.43;4.10;;;23.60;99.90;;;;;;4955857;28;20217;-69
2023/09/13 06:40:07;;;;;;;4.30;3.97;;;23.60;99.90;;;;;;4955981;28;20190;-69
2023/09/13 06:42:33;;;;;;;4.50;4.10;;;23.60;99.90;;;;;;4944580;28;20189;-69
2023/09/13 06:44:59;;;;;;;4.13;3.75;;;23.60;99.90;;;;;;4939524;28;20252;-69
2023/09/13 06:47:28;;;;;;;5.65;4.25;;;23.60;99.90;;;;;;4955967;28;20200;-69
2023/09/13 06:49:57;;;;;;;4.18;3.88;;;23.60;99.90;;;;;;4956006;28;20575;-69
2023/09/13 06:52:23;;;;;;;4.40;4.00;;;23.60;99.90;;;;;;4972960;28;20672;-69
2023/09/13 06:54:49;;;;;;;4.40;4.00;;;23.60;99.90;;;;;;4955336;28;20212;-69
2023/09/13 06:57:16;;;;;;;4.53;4.13;;;23.60;99.90;;;;;;4955567;28;20222;-69
2023/09/13 06:59:42;;;;;;;4.30;4.00;;;23.60;99.90;;;;;;4972815;28;20583;-69
2023/09/13 07:02:08;;;;;;;3.97;3.58;;;23.60;99.90;;;;;;4955950;28;20799;-69
2023/09/13 07:04:34;;;;;;;4.15;3.72;;;23.60;99.90;;;;;;4972683;28;20316;-70
2023/09/13 07:07:00;;;;;;;4.00;3.70;;;23.60;99.90;;;;;;4972715;28;20240;-70
2023/09/13 07:09:25;;;;;;;4.07;3.78;;;23.60;99.90;;;;;;4943623;28;20193;-69
2023/09/13 07:11:51;;;;;;;4.13;3.72;;;23.60;99.90;;;;;;4939607;28;20193;-69
2023/09/13 07:14:18;;;;;;;4.13;3.83;;;23.60;99.90;;;;;;4943662;28;20189;-69
2023/09/13 07:16:43;;;;;;;3.65;3.35;;;23.60;99.90;;;;;;4943647;28;20221;-69
2023/09/13 07:19:09;;;;;;;4.55;4.15;;;23.60;99.90;;;;;;4939342;28;20579;-69
2023/09/13 07:21:35;;;;;;;4.22;3.90;;;23.60;99.90;;;;;;4939490;28;20190;-69
2023/09/13 07:24:00;;;;;;;4.00;3.70;;;23.60;99.90;;;;;;4942534;28;20189;-69
2023/09/13 07:26:26;;;;;;;4.00;3.63;;;23.60;99.90;;;;;;4959493;28;20271;-69
2023/09/13 07:28:52;;;;;;;4.28;3.97;;;23.60;99.90;;;;;;4959210;28;20185;-69
2023/09/13 07:31:18;;;;;;;3.97;3.58;;;23.60;99.90;;;;;;4947079;28;20245;-69
2023/09/13 07:33:43;;;;;;;3.80;3.50;;;23.60;99.90;;;;;;4975560;28;20197;-68
2023/09/13 07:36:09;;;;;;;4.13;3.83;;;23.60;99.90;;;;;;4945996;28;20209;-69
2023/09/13 07:38:35;;;;;;;3.92;3.63;;;23.60;99.90;;;;;;4942988;28;20221;-69
2023/09/13 07:41:00;;;;;;;4.05;3.65;;;23.60;99.90;;;;;;4947116;28;20192;-69
2023/09/13 07:43:27;;;;;;;3.97;3.67;;;23.60;99.90;;;;;;4946937;28;20257;-69
2023/09/13 07:45:53;;;;;;;4.13;3.72;;;23.60;99.90;;;;;;4966688;28;20598;-69
2023/09/13 07:48:19;;;;;;;3.78;3.47;;;23.60;99.90;;;;;;4940721;29;20690;-69
2023/09/13 07:50:45;;;;;;;4.22;3.90;;;23.60;99.90;;;;;;4973057;28;20225;-69
2023/09/13 07:53:12;;;;;;;3.97;3.65;;;23.70;99.90;;;;;;4960470;28;20194;-69
2023/09/13 07:55:39;;;;;;;3.97;3.67;;;23.70;99.90;;;;;;4958463;28;20223;-69
2023/09/13 07:58:06;;;;;;;4.22;3.83;;;23.70;99.90;;;;;;4958756;28;20210;-69
2023/09/13 08:00:33;;;;;;;4.85;3.92;;;23.60;99.90;;;;;;4958789;28;20198;-69
2023/09/13 08:03:00;;;;;;;4.03;3.63;;;23.60;99.90;;;;;;4960401;28;20181;-69
2023/09/13 08:05:27;;;;;;;4.40;3.40;;;23.60;99.90;;;;;;4946166;28;20217;-69
2023/09/13 08:07:54;;;;;;;4.05;3.75;;;23.60;99.90;;;;;;4958460;28;20193;-69
2023/09/13 08:10:21;;;;;;;4.20;3.88;;;23.70;99.90;;;;;;4974721;28;20193;-69
2023/09/13 08:12:48;;;;;;;4.03;3.72;;;23.60;99.90;;;;;;4958435;28;20260;-69
2023/09/13 08:15:14;;;;;;;4.25;3.92;;;23.70;99.90;;;;;;4936637;28;20217;-69
2023/09/13 08:17:40;;;;;;;3.88;3.58;;;23.60;99.90;;;;;;4975784;28;20217;-69
2023/09/13 08:20:09;;;;;;;4.35;4.05;;;23.70;99.90;;;;;;4958360;28;20203;-69
2023/09/13 08:22:36;;;;;;;4.05;3.75;;;23.60;99.90;;;;;;4958618;28;20185;-69
2023/09/13 08:25:03;;;;;;;4.43;4.10;;;23.70;99.90;;;;;;4958088;28;20186;-69
2023/09/13 08:27:29;;;;;;;4.32;4.03;;;23.60;99.90;;;;;;4958172;28;20197;-69
2023/09/13 08:29:55;;;;;;;4.43;4.10;;;23.70;99.90;;;;;;4942336;28;20209;-69
2023/09/13 08:32:22;;;;;;;4.68;4.03;;;23.60;99.90;;;;;;4958192;28;20277;-69
2023/09/13 08:34:48;;;;;;;4.20;3.90;;;23.60;99.90;;;;;;4943454;28;20198;-70
2023/09/13 08:37:14;;;;;;;4.70;4.30;;;23.70;99.90;;;;;;4942166;28;20225;-69
2023/09/13 08:39:39;;;;;;;3.90;3.60;;;23.60;99.90;;;;;;4958025;28;20189;-69
2023/09/13 08:42:05;;;;;;;4.55;3.47;;;23.70;99.90;;;;;;4957954;28;20193;-69
2023/09/13 08:44:33;;;;;;;4.10;3.80;;;23.60;99.90;;;;;;4941195;29;20214;-69
2023/09/13 08:47:04;;;;;;;3.90;3.60;;;23.70;99.90;;;;;;4957455;28;20216;-69
2023/09/13 08:49:31;;;;;;;4.10;3.78;;;23.70;99.90;;;;;;4973910;28;20673;-69
2023/09/13 08:51:58;;;;;;;4.20;3.85;;;23.70;99.90;;;;;;4957957;28;20222;-69
2023/09/13 08:54:26;;;;;;;4.15;3.85;;;23.70;99.90;;;;;;4942040;28;20193;-69
2023/09/13 08:56:54;;;;;;;4.40;3.80;;;23.70;99.90;;;;;;4957559;28;20214;-69
2023/09/13 08:59:20;;;;;;;4.00;3.70;;;23.60;99.90;;;;;;4974874;28;20196;-69
2023/09/13 09:01:51;;;;;;;4.38;3.97;;;23.60;99.90;;;;;;4960822;28;20194;-69
2023/09/13 09:04:19;;;;;;;3.70;3.40;;;23.70;99.90;;;;;;4951247;28;20248;-69
2023/09/13 09:06:46;;;;;;;3.58;3.38;;;23.70;99.90;;;;;;4944380;28;20216;-69
2023/09/13 09:09:17;;;;;;;4.43;4.03;;;23.70;99.90;;;;;;4957245;28;20284;-69
2023/09/13 09:12:02;;;;;;;3.92;3.63;;;23.70;99.90;;;;;;4944324;28;20221;-70
2023/09/13 09:14:34;;;;;;;4.13;3.83;;;23.70;99.90;;;;;;4937878;28;20276;-69
2023/09/13 09:17:02;;;;;;;3.95;3.65;;;23.70;99.90;;;;;;4941125;28;20323;-70
2023/09/13 09:19:29;;;;;;;4.05;3.70;;;23.70;99.90;;;;;;4957426;28;20212;-69
2023/09/13 09:21:58;;;;;;;3.95;3.65;;;23.70;99.90;;;;;;4941845;28;20189;-69
2023/09/13 09:24:24;;;;;;;4.03;3.67;;;23.70;99.90;;;;;;4957064;28;20615;-69
2023/09/13 09:26:50;;;;;;;3.63;3.33;;;23.70;99.90;;;;;;4943339;28;20373;-70
2023/09/13 09:29:20;;;;;;;3.90;3.60;;;23.70;99.90;;;;;;4956713;28;20228;-69
2023/09/13 09:31:50;;;;;;;4.00;3.70;;;23.70;99.90;;;;;;4958635;28;20189;-69
2023/09/13 09:34:16;;;;;;;3.97;3.67;;;23.70;99.90;;;;;;4937353;28;20186;-69
2023/09/13 09:36:46;;;;;;;4.20;3.90;;;23.70;99.90;;;;;;4974220;28;20217;-69
2023/09/13 09:39:13;;;;;;;3.83;3.53;;;23.70;99.90;;;;;;4974456;28;20201;-69
2023/09/13 09:41:39;;;;;;;4.35;3.95;;;23.70;99.90;;;;;;4941219;28;20178;-69
2023/09/13 09:44:06;;;;;;;3.47;3.17;;;23.70;99.90;;;;;;4956886;28;20182;-69
2023/09/13 09:46:33;;;;;;;3.88;3.58;;;23.70;99.90;;;;;;4940604;28;20212;-69
2023/09/13 09:49:00;;;;;;;3.47;3.17;;;23.70;99.90;;;;;;4941758;28;20194;-69
2023/09/13 09:51:28;;;;;;;3.67;3.40;;;23.70;99.90;;;;;;4956849;28;20182;-69
2023/09/13 09:53:56;;;;;;;3.40;3.20;;;23.70;99.90;;;;;;4957500;28;20198;-70
2023/09/13 09:56:22;;;;;;;3.75;3.40;;;23.70;99.90;;;;;;4940476;28;20539;-69
2023/09/13 09:58:48;;;;;;;3.72;3.42;;;23.70;99.90;;;;;;4972372;28;20218;-70
2023/09/13 10:01:18;;;;;;;3.10;2.90;;;23.70;99.90;;;;;;4974787;28;20197;-69
2023/09/13 10:03:44;;;;;;;3.40;3.17;;;23.70;99.90;;;;;;4974660;28;20279;-69
2023/09/13 10:06:15;;;;;;;3.65;3.35;;;23.70;99.90;;;;;;4941875;28;20252;-69
2023/09/13 10:08:43;;;;;;;3.50;3.30;;;23.70;99.90;;;;;;4957657;28;20201;-69
2023/09/13 10:11:17;;;;;;;3.45;3.22;;;23.70;99.90;;;;;;4956472;28;20280;-69
2023/09/13 10:13:47;;;;;;;3.60;3.30;;;23.70;99.90;;;;;;4941369;28;20289;-69
2023/09/13 10:16:17;;;;;;;3.90;3.60;;;23.70;99.90;;;;;;4973221;28;20209;-69
2023/09/13 10:18:48;;;;;;;3.58;3.30;;;23.70;99.90;;;;;;4941986;28;20325;-69
2023/09/13 10:21:36;;;;;;;3.50;3.20;;;23.70;99.90;;;;;;4949370;28;20195;-69
2023/09/13 10:24:07;;;;;;;3.50;3.20;;;23.70;99.90;;;;;;4946348;28;20194;-69
2023/09/13 10:26:34;;;;;;;3.03;2.83;;;23.70;99.90;;;;;;4936740;29;20585;-69
2023/09/13 10:29:12;;;;;;;3.10;2.85;;;23.70;99.90;;;;;;4939465;28;20279;-69
2023/09/13 10:31:45;;;;;;;3.58;3.28;;;23.70;99.90;;;;;;4955969;28;20661;-70
2023/09/13 10:34:23;;;;;;;3.30;3.10;;;23.70;99.90;;;;;;4948467;28;20204;-69
2023/09/13 10:37:28;;;;;;;3.22;3.03;;;23.70;99.90;;;;;;4940069;28;20268;-69
2023/09/13 10:40:15;;;;;;;3.47;3.17;;;23.70;99.90;;;;;;4905989;28;20216;-69
2023/09/13 10:42:43;;;;;;;3.88;3.58;;;23.70;99.90;;;;;;4941907;28;20287;-69
2023/09/13 10:45:14;;;;;;;3.65;3.35;;;23.70;99.90;;;;;;4938938;28;20669;-69
2023/09/13 10:47:40;;;;;;;3.47;3.20;;;23.70;99.90;;;;;;4936771;29;20186;-69
2023/09/13 10:50:10;;;;;;;3.30;3.00;;;23.70;99.90;;;;;;4971819;28;20186;-70
2023/09/13 10:52:38;;;;;;;3.15;2.95;;;23.70;99.90;;;;;;4940746;28;20190;-69
2023/09/13 10:55:06;;;;;;;3.10;2.90;;;23.70;99.90;;;;;;4972623;28;20192;-69
2023/09/13 10:57:34;;;;;;;2.95;2.75;;;23.70;99.90;;;;;;4954770;28;20217;-69
2023/09/13 11:00:05;;;;;;;2.88;2.67;;;23.80;99.90;;;;;;4946782;28;20197;-69
2023/09/13 11:02:34;;;;;;;2.90;2.70;;;23.70;99.90;;;;;;4972843;28;20204;-69
2023/09/13 11:04:59;;;;;;;3.08;2.85;;;23.80;99.90;;;;;;4955958;28;20185;-69
2023/09/13 11:07:25;;;;;;;3.13;2.92;;;23.70;99.90;;;;;;4939974;28;20237;-69
2023/09/13 11:09:52;;;;;;;3.17;2.90;;;23.80;99.90;;;;;;4956283;28;20248;-69
2023/09/13 11:12:26;;;;;;;3.30;3.00;;;23.80;99.90;;;;;;4956022;28;20201;-69
2023/09/13 11:14:52;;;;;;;2.85;2.65;;;23.80;99.90;;;;;;4948024;28;20205;-69
2023/09/13 11:17:39;;;;;;;3.00;2.80;;;23.80;99.90;;;;;;4972555;28;20229;-70
2023/09/13 11:20:23;;;;;;;2.83;2.63;;;23.80;99.90;;;;;;4971541;28;20645;-70
2023/09/13 11:23:00;;;;;;;2.88;2.67;;;23.80;99.90;;;;;;4972759;28;20193;-69
2023/09/13 11:25:49;;;;;;;3.20;3.00;;;23.80;99.90;;;;;;4939180;28;20280;-69
2023/09/13 11:28:36;;;;;;;3.03;2.83;;;23.80;99.90;;;;;;4944231;28;20185;-69
2023/09/13 11:31:07;;;;;;;3.40;3.20;;;23.80;99.90;;;;;;4941237;28;20204;-69
2023/09/13 11:33:47;;;;;;;2.85;2.65;;;23.80;99.90;;;;;;4955631;28;20241;-69
2023/09/13 11:36:20;;;;;;;3.28;3.00;;;23.80;99.90;;;;;;4955355;28;20240;-69
2023/09/13 11:38:52;;;;;;;3.03;2.83;;;23.80;99.90;;;;;;4955595;28;20217;-69
2023/09/13 11:41:18;;;;;;;3.30;3.00;;;23.80;99.90;;;;;;4932950;28;20182;-69
2023/09/13 11:43:44;;;;;;;3.00;2.80;;;23.80;99.90;;;;;;4939302;28;20182;-69
2023/09/13 11:46:11;;;;;;;3.47;3.17;;;23.80;99.90;;;;;;4939287;28;20304;-70
2023/09/13 11:48:41;;;;;;;2.85;2.60;;;23.80;99.90;;;;;;4955449;28;20189;-70
2023/09/13 11:51:16;;;;;;;2.70;2.58;;;23.80;99.90;;;;;;4955333;28;20181;-69
2023/09/13 11:53:43;;;;;;;2.83;2.63;;;23.80;99.90;;;;;;4972748;28;20193;-70
2023/09/13 11:56:37;;;;;;;3.28;2.97;;;23.80;99.90;;;;;;4972084;28;20209;-70
2023/09/13 11:59:04;;;;;;;3.28;3.03;;;23.80;99.90;;;;;;4955049;28;20189;-70
2023/09/13 12:01:30;;;;;;;3.53;2.60;;;23.80;99.90;;;;;;4939976;28;20225;-70
2023/09/13 12:04:03;;;;;;;3.60;3.30;;;23.80;99.90;;;;;;4939800;28;20193;-70
2023/09/13 12:06:29;;;;;;;3.08;2.88;;;23.80;99.90;;;;;;4955256;28;20209;-71
2023/09/13 12:08:55;;;;;;;3.22;3.03;;;23.80;99.90;;;;;;4947844;28;20189;-69
2023/09/13 12:11:22;;;;;;;3.13;2.90;;;23.80;99.90;;;;;;4942870;28;20237;-70
2023/09/13 12:13:52;;;;;;;3.00;2.80;;;23.80;99.90;;;;;;4958465;28;20200;-70
2023/09/13 12:16:19;;;;;;;3.35;3.10;;;23.80;99.90;;;;;;4951344;28;20201;-70
2023/09/13 12:18:44;;;;;;;3.13;2.92;;;23.80;99.90;;;;;;4958297;28;20220;-70
2023/09/13 12:21:12;;;;;;;3.00;2.80;;;23.80;99.90;;;;;;4976179;28;20194;-70
2023/09/13 12:23:41;;;;;;;3.20;2.90;;;23.80;99.90;;;;;;4975934;28;20213;-69
2023/09/13 12:26:18;;;;;;;2.92;2.72;;;23.80;99.90;;;;;;4958053;28;20565;-69
2023/09/13 12:28:48;;;;;;;3.20;3.00;;;23.80;99.90;;;;;;4975517;28;20241;-71
2023/09/13 12:31:16;;;;;;;3.05;2.85;;;23.80;99.90;;;;;;4950520;28;20194;-69
2023/09/13 12:33:44;;;;;;;2.80;2.65;;;23.80;99.90;;;;;;4958208;28;20547;-70
2023/09/13 12:36:11;;;;;;;2.92;2.72;;;23.80;99.90;;;;;;4958072;28;20288;-70
2023/09/13 12:38:43;;;;;;;2.85;2.65;;;23.80;99.90;;;;;;4941684;28;20228;-71
2023/09/13 12:41:21;;;;;;;3.63;3.33;;;23.80;99.90;;;;;;4957943;28;20196;-71
2023/09/13 12:43:51;;;;;;;3.25;2.92;;;23.80;99.90;;;;;;4958461;28;20185;-71
2023/09/13 12:46:20;;;;;;;3.33;3.13;;;23.80;99.90;;;;;;4967800;28;20267;-71
2023/09/13 12:48:49;;;;;;;2.90;2.70;;;23.80;99.90;;;;;;4942135;28;20193;-70
2023/09/13 12:51:22;;;;;;;3.15;2.95;;;23.80;99.90;;;;;;4950284;28;20189;-72
2023/09/13 12:53:52;;;;;;;2.90;2.63;;;23.80;99.90;;;;;;4941888;28;20190;-69